sensor_id;sensor_type;location;lat;lon;timestamp;P1;durP1;ratioP1;P2;durP2;ratioP2
21601;SDS011;10963;50.934;4.668;2022-07-29T00:00:06;6.17;;;2.30;;
21601;SDS011;10963;50.934;4.668;2022-07-29T00:02:32;6.30;;;2.40;;
21601;SDS011;10963;50.934;4.668;2022-07-29T00:05:01;4.93;;;2.40;;
21601;SDS011;10963;50.934;4.668;2022-07-29T00:07:29;6.17;;;2.93;;
21601;SDS011;10963;50.934;4.668;2022-07-29T00:09:55;4.17;;;2.00;;
21601;SDS011;10963;50.934;4.668;2022-07-29T00:12:23;3.70;;;3.00;;
21601;SDS011;10963;50.934;4.668;2022-07-29T00:14:50;7.23;;;2.77;;
21601;SDS011;10963;50.934;4.668;2022-07-29T00:17:24;5.43;;;2.23;;
21601;SDS011;10963;50.934;4.668;2022-07-29T00:19:50;6.77;;;2.93;;
21601;SDS011;10963;50.934;4.668;2022-07-29T00:22:16;5.77;;;2.53;;
21601;SDS011;10963;50.934;4.668;2022-07-29T00:24:41;4.33;;;2.53;;
21601;SDS011;10963;50.934;4.668;2022-07-29T00:27:11;4.20;;;2.80;;
21601;SDS011;10963;50.934;4.668;2022-07-29T00:29:41;4.13;;;2.53;;
21601;SDS011;10963;50.934;4.668;2022-07-29T00:32:07;4.60;;;2.83;;
21601;SDS011;10963;50.934;4.668;2022-07-29T00:34:35;5.40;;;3.03;;
21601;SDS011;10963;50.934;4.668;2022-07-29T00:37:22;4.87;;;2.60;;
21601;SDS011;10963;50.934;4.668;2022-07-29T00:39:48;9.73;;;3.10;;
21601;SDS011;10963;50.934;4.668;2022-07-29T00:42:14;8.13;;;2.63;;
21601;SDS011;10963;50.934;4.668;2022-07-29T00:44:42;5.10;;;2.60;;
21601;SDS011;10963;50.934;4.668;2022-07-29T00:47:09;9.10;;;2.53;;
21601;SDS011;10963;50.934;4.668;2022-07-29T00:49:36;8.77;;;2.80;;
21601;SDS011;10963;50.934;4.668;2022-07-29T00:52:07;3.83;;;2.67;;
21601;SDS011;10963;50.934;4.668;2022-07-29T00:54:37;5.00;;;2.33;;
21601;SDS011;10963;50.934;4.668;2022-07-29T00:57:05;4.37;;;2.50;;
21601;SDS011;10963;50.934;4.668;2022-07-29T00:59:34;7.87;;;2.80;;
21601;SDS011;10963;50.934;4.668;2022-07-29T01:02:01;6.83;;;2.70;;
21601;SDS011;10963;50.934;4.668;2022-07-29T01:04:30;4.57;;;2.80;;
21601;SDS011;10963;50.934;4.668;2022-07-29T01:07:00;8.30;;;3.00;;
21601;SDS011;10963;50.934;4.668;2022-07-29T01:09:31;5.13;;;2.53;;
21601;SDS011;10963;50.934;4.668;2022-07-29T01:12:01;5.97;;;2.70;;
21601;SDS011;10963;50.934;4.668;2022-07-29T01:14:28;7.37;;;2.97;;
21601;SDS011;10963;50.934;4.668;2022-07-29T01:17:00;8.40;;;2.80;;
21601;SDS011;10963;50.934;4.668;2022-07-29T01:25:25;5.83;;;2.87;;
21601;SDS011;10963;50.934;4.668;2022-07-29T01:28:01;3.73;;;2.43;;
21601;SDS011;10963;50.934;4.668;2022-07-29T01:30:34;6.00;;;2.30;;
21601;SDS011;10963;50.934;4.668;2022-07-29T01:33:07;5.63;;;2.63;;
21601;SDS011;10963;50.934;4.668;2022-07-29T01:35:56;5.27;;;2.33;;
21601;SDS011;10963;50.934;4.668;2022-07-29T01:38:23;8.33;;;3.00;;
21601;SDS011;10963;50.934;4.668;2022-07-29T01:44:02;4.23;;;2.70;;
21601;SDS011;10963;50.934;4.668;2022-07-29T01:46:35;4.83;;;3.00;;
21601;SDS011;10963;50.934;4.668;2022-07-29T01:49:20;7.23;;;2.50;;
21601;SDS011;10963;50.934;4.668;2022-07-29T01:51:54;5.47;;;2.77;;
21601;SDS011;10963;50.934;4.668;2022-07-29T01:57:02;12.53;;;3.30;;
21601;SDS011;10963;50.934;4.668;2022-07-29T01:59:29;11.97;;;3.53;;
21601;SDS011;10963;50.934;4.668;2022-07-29T02:02:01;9.50;;;3.27;;
21601;SDS011;10963;50.934;4.668;2022-07-29T02:04:30;5.40;;;2.73;;
21601;SDS011;10963;50.934;4.668;2022-07-29T02:07:00;8.30;;;2.80;;
21601;SDS011;10963;50.934;4.668;2022-07-29T02:09:30;11.03;;;2.77;;
21601;SDS011;10963;50.934;4.668;2022-07-29T02:11:58;7.33;;;3.27;;
21601;SDS011;10963;50.934;4.668;2022-07-29T02:14:26;8.77;;;2.97;;
21601;SDS011;10963;50.934;4.668;2022-07-29T02:16:54;6.03;;;3.23;;
21601;SDS011;10963;50.934;4.668;2022-07-29T02:19:28;6.40;;;3.00;;
21601;SDS011;10963;50.934;4.668;2022-07-29T02:21:56;5.17;;;2.90;;
21601;SDS011;10963;50.934;4.668;2022-07-29T02:24:25;3.17;;;2.63;;
21601;SDS011;10963;50.934;4.668;2022-07-29T02:26:52;6.67;;;3.00;;
21601;SDS011;10963;50.934;4.668;2022-07-29T02:29:21;5.20;;;2.80;;
21601;SDS011;10963;50.934;4.668;2022-07-29T02:31:50;4.57;;;2.70;;
21601;SDS011;10963;50.934;4.668;2022-07-29T02:34:18;8.80;;;2.90;;
21601;SDS011;10963;50.934;4.668;2022-07-29T02:36:49;3.33;;;2.70;;
21601;SDS011;10963;50.934;4.668;2022-07-29T02:39:15;7.90;;;3.23;;
21601;SDS011;10963;50.934;4.668;2022-07-29T02:41:47;6.93;;;3.40;;
21601;SDS011;10963;50.934;4.668;2022-07-29T02:44:20;4.60;;;2.67;;
21601;SDS011;10963;50.934;4.668;2022-07-29T02:46:58;4.97;;;2.70;;
21601;SDS011;10963;50.934;4.668;2022-07-29T02:49:48;4.33;;;2.53;;
21601;SDS011;10963;50.934;4.668;2022-07-29T02:55:26;5.30;;;2.77;;
21601;SDS011;10963;50.934;4.668;2022-07-29T02:58:05;4.93;;;2.90;;
21601;SDS011;10963;50.934;4.668;2022-07-29T03:00:34;7.03;;;2.90;;
21601;SDS011;10963;50.934;4.668;2022-07-29T03:03:03;4.63;;;2.77;;
21601;SDS011;10963;50.934;4.668;2022-07-29T03:05:32;5.63;;;3.00;;
21601;SDS011;10963;50.934;4.668;2022-07-29T03:08:00;5.30;;;2.53;;
21601;SDS011;10963;50.934;4.668;2022-07-29T03:10:28;6.87;;;2.70;;
21601;SDS011;10963;50.934;4.668;2022-07-29T03:12:55;6.17;;;3.13;;
21601;SDS011;10963;50.934;4.668;2022-07-29T03:15:22;3.87;;;2.80;;
21601;SDS011;10963;50.934;4.668;2022-07-29T03:17:50;3.50;;;2.73;;
21601;SDS011;10963;50.934;4.668;2022-07-29T03:20:17;8.20;;;2.83;;
21601;SDS011;10963;50.934;4.668;2022-07-29T03:22:45;4.97;;;2.93;;
21601;SDS011;10963;50.934;4.668;2022-07-29T03:25:16;5.20;;;2.77;;
21601;SDS011;10963;50.934;4.668;2022-07-29T03:27:44;5.43;;;2.90;;
21601;SDS011;10963;50.934;4.668;2022-07-29T03:30:12;5.33;;;2.90;;
21601;SDS011;10963;50.934;4.668;2022-07-29T03:32:41;5.17;;;2.60;;
21601;SDS011;10963;50.934;4.668;2022-07-29T03:35:09;5.77;;;2.90;;
21601;SDS011;10963;50.934;4.668;2022-07-29T03:37:35;5.77;;;3.00;;
21601;SDS011;10963;50.934;4.668;2022-07-29T03:40:05;4.77;;;2.60;;
21601;SDS011;10963;50.934;4.668;2022-07-29T03:42:33;4.60;;;2.70;;
21601;SDS011;10963;50.934;4.668;2022-07-29T03:45:06;6.23;;;3.00;;
21601;SDS011;10963;50.934;4.668;2022-07-29T03:47:37;5.70;;;2.93;;
21601;SDS011;10963;50.934;4.668;2022-07-29T03:50:07;7.33;;;3.10;;
21601;SDS011;10963;50.934;4.668;2022-07-29T03:52:41;4.13;;;2.90;;
21601;SDS011;10963;50.934;4.668;2022-07-29T03:55:08;4.50;;;2.77;;
21601;SDS011;10963;50.934;4.668;2022-07-29T03:57:34;3.77;;;3.00;;
21601;SDS011;10963;50.934;4.668;2022-07-29T04:00:01;5.50;;;2.97;;
21601;SDS011;10963;50.934;4.668;2022-07-29T04:02:31;9.33;;;2.93;;
21601;SDS011;10963;50.934;4.668;2022-07-29T04:05:03;5.33;;;3.00;;
21601;SDS011;10963;50.934;4.668;2022-07-29T04:07:31;6.37;;;2.73;;
21601;SDS011;10963;50.934;4.668;2022-07-29T04:10:02;3.37;;;2.90;;
21601;SDS011;10963;50.934;4.668;2022-07-29T04:12:32;6.70;;;3.53;;
21601;SDS011;10963;50.934;4.668;2022-07-29T04:15:01;5.07;;;2.60;;
21601;SDS011;10963;50.934;4.668;2022-07-29T04:17:32;7.93;;;3.33;;
21601;SDS011;10963;50.934;4.668;2022-07-29T04:20:02;4.60;;;3.20;;
21601;SDS011;10963;50.934;4.668;2022-07-29T04:22:31;3.20;;;2.90;;
21601;SDS011;10963;50.934;4.668;2022-07-29T04:24:59;6.30;;;3.10;;
21601;SDS011;10963;50.934;4.668;2022-07-29T04:27:27;3.83;;;3.13;;
21601;SDS011;10963;50.934;4.668;2022-07-29T04:29:53;4.80;;;2.93;;
21601;SDS011;10963;50.934;4.668;2022-07-29T04:32:19;2.90;;;2.60;;
21601;SDS011;10963;50.934;4.668;2022-07-29T04:34:47;5.60;;;3.10;;
21601;SDS011;10963;50.934;4.668;2022-07-29T04:37:18;4.60;;;3.33;;
21601;SDS011;10963;50.934;4.668;2022-07-29T04:39:43;6.37;;;3.27;;
21601;SDS011;10963;50.934;4.668;2022-07-29T04:42:12;6.03;;;3.10;;
21601;SDS011;10963;50.934;4.668;2022-07-29T04:44:42;3.20;;;2.90;;
21601;SDS011;10963;50.934;4.668;2022-07-29T04:47:08;4.83;;;2.90;;
21601;SDS011;10963;50.934;4.668;2022-07-29T04:49:39;5.50;;;3.10;;
21601;SDS011;10963;50.934;4.668;2022-07-29T04:52:05;4.77;;;2.97;;
21601;SDS011;10963;50.934;4.668;2022-07-29T04:54:34;4.50;;;3.33;;
21601;SDS011;10963;50.934;4.668;2022-07-29T04:57:00;3.53;;;3.20;;
21601;SDS011;10963;50.934;4.668;2022-07-29T04:59:29;4.83;;;3.27;;
21601;SDS011;10963;50.934;4.668;2022-07-29T05:01:56;5.60;;;3.10;;
21601;SDS011;10963;50.934;4.668;2022-07-29T05:04:24;3.57;;;2.63;;
21601;SDS011;10963;50.934;4.668;2022-07-29T05:06:55;4.63;;;3.17;;
21601;SDS011;10963;50.934;4.668;2022-07-29T05:09:21;6.83;;;3.33;;
21601;SDS011;10963;50.934;4.668;2022-07-29T05:11:47;7.53;;;3.17;;
21601;SDS011;10963;50.934;4.668;2022-07-29T05:14:15;6.97;;;3.80;;
21601;SDS011;10963;50.934;4.668;2022-07-29T05:16:45;4.80;;;2.90;;
21601;SDS011;10963;50.934;4.668;2022-07-29T05:19:15;7.87;;;3.53;;
21601;SDS011;10963;50.934;4.668;2022-07-29T05:21:41;3.60;;;2.83;;
21601;SDS011;10963;50.934;4.668;2022-07-29T05:24:10;5.10;;;3.23;;
21601;SDS011;10963;50.934;4.668;2022-07-29T05:26:36;7.27;;;3.10;;
21601;SDS011;10963;50.934;4.668;2022-07-29T05:29:04;6.57;;;3.10;;
21601;SDS011;10963;50.934;4.668;2022-07-29T05:31:32;6.23;;;3.17;;
21601;SDS011;10963;50.934;4.668;2022-07-29T05:33:58;5.07;;;3.77;;
21601;SDS011;10963;50.934;4.668;2022-07-29T05:36:26;7.57;;;3.17;;
21601;SDS011;10963;50.934;4.668;2022-07-29T05:38:54;5.93;;;3.40;;
21601;SDS011;10963;50.934;4.668;2022-07-29T05:41:20;8.13;;;3.70;;
21601;SDS011;10963;50.934;4.668;2022-07-29T05:43:46;6.13;;;3.27;;
21601;SDS011;10963;50.934;4.668;2022-07-29T05:46:12;6.93;;;4.07;;
21601;SDS011;10963;50.934;4.668;2022-07-29T05:48:39;6.43;;;3.77;;
21601;SDS011;10963;50.934;4.668;2022-07-29T05:51:09;8.53;;;4.10;;
21601;SDS011;10963;50.934;4.668;2022-07-29T05:53:35;4.93;;;3.93;;
21601;SDS011;10963;50.934;4.668;2022-07-29T05:56:04;9.63;;;4.00;;
21601;SDS011;10963;50.934;4.668;2022-07-29T05:58:32;7.00;;;4.23;;
21601;SDS011;10963;50.934;4.668;2022-07-29T06:01:01;7.13;;;3.73;;
21601;SDS011;10963;50.934;4.668;2022-07-29T06:03:32;5.13;;;3.77;;
21601;SDS011;10963;50.934;4.668;2022-07-29T06:05:57;5.50;;;3.93;;
21601;SDS011;10963;50.934;4.668;2022-07-29T06:08:23;6.80;;;4.10;;
21601;SDS011;10963;50.934;4.668;2022-07-29T06:10:51;4.30;;;3.87;;
21601;SDS011;10963;50.934;4.668;2022-07-29T06:13:19;7.37;;;4.23;;
21601;SDS011;10963;50.934;4.668;2022-07-29T06:15:45;6.50;;;4.00;;
21601;SDS011;10963;50.934;4.668;2022-07-29T06:18:11;6.20;;;4.10;;
21601;SDS011;10963;50.934;4.668;2022-07-29T06:20:39;8.63;;;3.93;;
21601;SDS011;10963;50.934;4.668;2022-07-29T06:23:08;8.53;;;4.10;;
21601;SDS011;10963;50.934;4.668;2022-07-29T06:25:36;5.37;;;4.20;;
21601;SDS011;10963;50.934;4.668;2022-07-29T06:28:01;10.13;;;4.73;;
21601;SDS011;10963;50.934;4.668;2022-07-29T06:30:27;10.97;;;4.00;;
21601;SDS011;10963;50.934;4.668;2022-07-29T06:32:59;8.37;;;4.80;;
21601;SDS011;10963;50.934;4.668;2022-07-29T06:35:27;8.10;;;4.10;;
21601;SDS011;10963;50.934;4.668;2022-07-29T06:37:53;8.17;;;4.70;;
21601;SDS011;10963;50.934;4.668;2022-07-29T06:40:19;9.07;;;4.57;;
21601;SDS011;10963;50.934;4.668;2022-07-29T06:43:03;8.70;;;4.63;;
21601;SDS011;10963;50.934;4.668;2022-07-29T06:45:30;7.47;;;4.07;;
21601;SDS011;10963;50.934;4.668;2022-07-29T06:47:58;5.73;;;4.37;;
21601;SDS011;10963;50.934;4.668;2022-07-29T06:50:26;8.90;;;4.63;;
21601;SDS011;10963;50.934;4.668;2022-07-29T06:52:54;6.37;;;4.40;;
21601;SDS011;10963;50.934;4.668;2022-07-29T06:55:20;7.07;;;4.13;;
21601;SDS011;10963;50.934;4.668;2022-07-29T06:57:48;8.37;;;4.73;;
21601;SDS011;10963;50.934;4.668;2022-07-29T07:00:13;7.57;;;4.40;;
21601;SDS011;10963;50.934;4.668;2022-07-29T07:02:42;6.97;;;4.13;;
21601;SDS011;10963;50.934;4.668;2022-07-29T07:05:08;10.27;;;4.63;;
21601;SDS011;10963;50.934;4.668;2022-07-29T07:07:36;5.20;;;3.93;;
21601;SDS011;10963;50.934;4.668;2022-07-29T07:10:04;5.00;;;4.23;;
21601;SDS011;10963;50.934;4.668;2022-07-29T07:12:35;7.40;;;4.20;;
21601;SDS011;10963;50.934;4.668;2022-07-29T07:15:01;8.70;;;3.83;;
21601;SDS011;10963;50.934;4.668;2022-07-29T07:17:29;7.68;;;4.15;;
21601;SDS011;10963;50.934;4.668;2022-07-29T07:19:55;11.00;;;3.93;;
21601;SDS011;10963;50.934;4.668;2022-07-29T07:22:23;6.43;;;4.27;;
21601;SDS011;10963;50.934;4.668;2022-07-29T07:24:49;7.07;;;4.50;;
21601;SDS011;10963;50.934;4.668;2022-07-29T07:27:17;4.80;;;3.85;;
21601;SDS011;10963;50.934;4.668;2022-07-29T07:29:47;5.13;;;3.83;;
21601;SDS011;10963;50.934;4.668;2022-07-29T07:32:13;5.63;;;4.15;;
21601;SDS011;10963;50.934;4.668;2022-07-29T07:34:42;8.70;;;4.93;;
21601;SDS011;10963;50.934;4.668;2022-07-29T07:37:08;6.25;;;4.70;;
21601;SDS011;10963;50.934;4.668;2022-07-29T07:39:36;7.60;;;4.30;;
21601;SDS011;10963;50.934;4.668;2022-07-29T07:42:04;7.20;;;4.28;;
21601;SDS011;10963;50.934;4.668;2022-07-29T07:44:32;8.40;;;4.15;;
21601;SDS011;10963;50.934;4.668;2022-07-29T07:47:00;6.55;;;4.20;;
21601;SDS011;10963;50.934;4.668;2022-07-29T07:49:26;8.88;;;4.05;;
21601;SDS011;10963;50.934;4.668;2022-07-29T07:51:53;6.20;;;4.47;;
21601;SDS011;10963;50.934;4.668;2022-07-29T07:54:19;6.65;;;4.20;;
21601;SDS011;10963;50.934;4.668;2022-07-29T07:56:47;7.10;;;4.30;;
21601;SDS011;10963;50.934;4.668;2022-07-29T07:59:20;11.52;;;4.57;;
21601;SDS011;10963;50.934;4.668;2022-07-29T08:01:46;6.97;;;3.95;;
21601;SDS011;10963;50.934;4.668;2022-07-29T08:04:11;6.60;;;4.50;;
21601;SDS011;10963;50.934;4.668;2022-07-29T08:06:40;6.30;;;3.65;;
21601;SDS011;10963;50.934;4.668;2022-07-29T08:09:08;8.85;;;4.30;;
21601;SDS011;10963;50.934;4.668;2022-07-29T08:11:39;6.10;;;4.45;;
21601;SDS011;10963;50.934;4.668;2022-07-29T08:14:04;9.07;;;4.22;;
21601;SDS011;10963;50.934;4.668;2022-07-29T08:16:30;7.47;;;4.05;;
21601;SDS011;10963;50.934;4.668;2022-07-29T08:18:58;11.43;;;4.22;;
21601;SDS011;10963;50.934;4.668;2022-07-29T08:21:26;6.97;;;4.88;;
21601;SDS011;10963;50.934;4.668;2022-07-29T08:23:54;6.10;;;4.10;;
21601;SDS011;10963;50.934;4.668;2022-07-29T08:26:43;5.93;;;4.50;;
21601;SDS011;10963;50.934;4.668;2022-07-29T08:29:14;6.15;;;4.10;;
21601;SDS011;10963;50.934;4.668;2022-07-29T08:31:41;6.00;;;3.90;;
21601;SDS011;10963;50.934;4.668;2022-07-29T08:34:06;5.55;;;4.18;;
21601;SDS011;10963;50.934;4.668;2022-07-29T08:36:35;8.25;;;3.90;;
21601;SDS011;10963;50.934;4.668;2022-07-29T08:39:03;9.27;;;4.03;;
21601;SDS011;10963;50.934;4.668;2022-07-29T08:41:30;7.72;;;3.85;;
21601;SDS011;10963;50.934;4.668;2022-07-29T08:43:56;7.53;;;3.70;;
21601;SDS011;10963;50.934;4.668;2022-07-29T08:46:22;6.95;;;3.97;;
21601;SDS011;10963;50.934;4.668;2022-07-29T08:48:48;5.55;;;3.53;;
21601;SDS011;10963;50.934;4.668;2022-07-29T08:51:19;6.15;;;3.33;;
21601;SDS011;10963;50.934;4.668;2022-07-29T08:53:49;8.05;;;3.58;;
21601;SDS011;10963;50.934;4.668;2022-07-29T08:56:18;5.32;;;2.83;;
21601;SDS011;10963;50.934;4.668;2022-07-29T08:58:46;4.78;;;2.90;;
21601;SDS011;10963;50.934;4.668;2022-07-29T09:01:22;5.68;;;3.08;;
21601;SDS011;10963;50.934;4.668;2022-07-29T09:03:49;7.15;;;2.85;;
21601;SDS011;10963;50.934;4.668;2022-07-29T09:06:19;5.63;;;3.88;;
21601;SDS011;10963;50.934;4.668;2022-07-29T09:08:50;4.22;;;3.25;;
21601;SDS011;10963;50.934;4.668;2022-07-29T09:11:16;4.07;;;3.28;;
21601;SDS011;10963;50.934;4.668;2022-07-29T09:13:44;5.43;;;3.60;;
21601;SDS011;10963;50.934;4.668;2022-07-29T09:16:12;6.75;;;3.13;;
21601;SDS011;10963;50.934;4.668;2022-07-29T09:18:39;6.70;;;3.45;;
21601;SDS011;10963;50.934;4.668;2022-07-29T09:21:11;4.13;;;3.22;;
21601;SDS011;10963;50.934;4.668;2022-07-29T09:24:01;5.70;;;3.20;;
21601;SDS011;10963;50.934;4.668;2022-07-29T09:26:27;4.65;;;3.25;;
21601;SDS011;10963;50.934;4.668;2022-07-29T09:28:57;4.97;;;2.85;;
21601;SDS011;10963;50.934;4.668;2022-07-29T09:31:32;6.32;;;3.28;;
21601;SDS011;10963;50.934;4.668;2022-07-29T09:33:59;5.32;;;3.13;;
21601;SDS011;10963;50.934;4.668;2022-07-29T09:36:25;5.30;;;3.15;;
21601;SDS011;10963;50.934;4.668;2022-07-29T09:39:02;5.45;;;2.72;;
21601;SDS011;10963;50.934;4.668;2022-07-29T09:41:46;4.32;;;2.75;;
21601;SDS011;10963;50.934;4.668;2022-07-29T09:44:22;3.22;;;2.35;;
21601;SDS011;10963;50.934;4.668;2022-07-29T09:46:57;7.18;;;2.85;;
21601;SDS011;10963;50.934;4.668;2022-07-29T09:49:53;5.55;;;2.63;;
21601;SDS011;10963;50.934;4.668;2022-07-29T09:52:23;2.67;;;2.30;;
21601;SDS011;10963;50.934;4.668;2022-07-29T09:55:04;3.53;;;2.95;;
21601;SDS011;10963;50.934;4.668;2022-07-29T09:57:31;5.45;;;2.78;;
21601;SDS011;10963;50.934;4.668;2022-07-29T10:02:27;4.45;;;2.60;;
21601;SDS011;10963;50.934;4.668;2022-07-29T10:04:59;3.45;;;2.50;;
21601;SDS011;10963;50.934;4.668;2022-07-29T10:10:22;3.10;;;2.38;;
21601;SDS011;10963;50.934;4.668;2022-07-29T10:12:56;2.67;;;2.47;;
21601;SDS011;10963;50.934;4.668;2022-07-29T10:15:26;6.80;;;2.70;;
21601;SDS011;10963;50.934;4.668;2022-07-29T10:17:57;4.78;;;2.60;;
21601;SDS011;10963;50.934;4.668;2022-07-29T10:20:26;5.38;;;3.38;;
21601;SDS011;10963;50.934;4.668;2022-07-29T10:22:53;5.68;;;2.50;;
21601;SDS011;10963;50.934;4.668;2022-07-29T10:25:22;2.95;;;2.65;;
21601;SDS011;10963;50.934;4.668;2022-07-29T10:27:51;3.15;;;2.55;;
21601;SDS011;10963;50.934;4.668;2022-07-29T10:30:21;4.05;;;2.72;;
21601;SDS011;10963;50.934;4.668;2022-07-29T10:44:22;4.22;;;2.20;;
21601;SDS011;10963;50.934;4.668;2022-07-29T10:46:52;18.50;;;3.60;;
21601;SDS011;10963;50.934;4.668;2022-07-29T10:49:24;3.35;;;2.70;;
21601;SDS011;10963;50.934;4.668;2022-07-29T10:52:07;4.25;;;2.55;;
21601;SDS011;10963;50.934;4.668;2022-07-29T10:57:20;4.28;;;2.88;;
21601;SDS011;10963;50.934;4.668;2022-07-29T11:02:43;5.00;;;2.55;;
21601;SDS011;10963;50.934;4.668;2022-07-29T11:05:17;6.15;;;2.58;;
21601;SDS011;10963;50.934;4.668;2022-07-29T11:08:28;5.63;;;2.40;;
21601;SDS011;10963;50.934;4.668;2022-07-29T11:10:38;3.25;;;2.55;;
21601;SDS011;10963;50.934;4.668;2022-07-29T11:13:04;2.95;;;2.60;;
21601;SDS011;10963;50.934;4.668;2022-07-29T11:15:51;5.50;;;2.60;;
21601;SDS011;10963;50.934;4.668;2022-07-29T11:18:19;4.88;;;2.35;;
21601;SDS011;10963;50.934;4.668;2022-07-29T11:20:49;4.68;;;2.72;;
21601;SDS011;10963;50.934;4.668;2022-07-29T11:23:25;3.75;;;2.53;;
21601;SDS011;10963;50.934;4.668;2022-07-29T11:47:22;3.92;;;2.53;;
21601;SDS011;10963;50.934;4.668;2022-07-29T11:49:53;9.50;;;2.83;;
21601;SDS011;10963;50.934;4.668;2022-07-29T11:52:20;10.55;;;2.42;;
21601;SDS011;10963;50.934;4.668;2022-07-29T11:54:49;6.57;;;2.45;;
21601;SDS011;10963;50.934;4.668;2022-07-29T11:57:19;4.95;;;2.42;;
21601;SDS011;10963;50.934;4.668;2022-07-29T11:59:46;4.18;;;2.50;;
21601;SDS011;10963;50.934;4.668;2022-07-29T12:02:15;7.72;;;2.90;;
21601;SDS011;10963;50.934;4.668;2022-07-29T12:04:51;5.63;;;2.50;;
21601;SDS011;10963;50.934;4.668;2022-07-29T12:07:32;7.03;;;2.65;;
21601;SDS011;10963;50.934;4.668;2022-07-29T12:10:05;7.43;;;2.75;;
21601;SDS011;10963;50.934;4.668;2022-07-29T12:12:32;6.47;;;2.72;;
21601;SDS011;10963;50.934;4.668;2022-07-29T12:15:14;4.22;;;3.15;;
21601;SDS011;10963;50.934;4.668;2022-07-29T12:17:51;2.85;;;2.60;;
21601;SDS011;10963;50.934;4.668;2022-07-29T12:20:29;6.82;;;2.42;;
21601;SDS011;10963;50.934;4.668;2022-07-29T12:22:55;2.83;;;2.28;;
21601;SDS011;10963;50.934;4.668;2022-07-29T12:25:35;3.53;;;2.65;;
21601;SDS011;10963;50.934;4.668;2022-07-29T12:28:05;4.70;;;2.70;;
21601;SDS011;10963;50.934;4.668;2022-07-29T12:30:35;5.45;;;2.80;;
21601;SDS011;10963;50.934;4.668;2022-07-29T12:33:19;6.25;;;2.60;;
21601;SDS011;10963;50.934;4.668;2022-07-29T12:35:46;3.03;;;2.30;;
21601;SDS011;10963;50.934;4.668;2022-07-29T12:38:15;3.17;;;2.20;;
21601;SDS011;10963;50.934;4.668;2022-07-29T12:40:42;8.95;;;2.85;;
21601;SDS011;10963;50.934;4.668;2022-07-29T12:43:12;12.48;;;2.85;;
21601;SDS011;10963;50.934;4.668;2022-07-29T12:45:41;7.03;;;2.42;;
21601;SDS011;10963;50.934;4.668;2022-07-29T12:48:09;6.68;;;3.17;;
21601;SDS011;10963;50.934;4.668;2022-07-29T12:50:58;4.88;;;2.80;;
21601;SDS011;10963;50.934;4.668;2022-07-29T12:53:28;5.28;;;2.40;;
21601;SDS011;10963;50.934;4.668;2022-07-29T12:55:55;6.65;;;2.80;;
21601;SDS011;10963;50.934;4.668;2022-07-29T13:01:02;5.65;;;2.75;;
21601;SDS011;10963;50.934;4.668;2022-07-29T13:09:14;5.50;;;3.00;;
21601;SDS011;10963;50.934;4.668;2022-07-29T13:14:29;6.18;;;2.85;;
21601;SDS011;10963;50.934;4.668;2022-07-29T13:17:06;5.28;;;2.78;;
21601;SDS011;10963;50.934;4.668;2022-07-29T13:19:37;5.00;;;2.92;;
21601;SDS011;10963;50.934;4.668;2022-07-29T13:22:18;4.38;;;2.97;;
21601;SDS011;10963;50.934;4.668;2022-07-29T13:24:54;10.75;;;3.08;;
21601;SDS011;10963;50.934;4.668;2022-07-29T13:27:21;8.27;;;2.45;;
21601;SDS011;10963;50.934;4.668;2022-07-29T13:29:54;4.97;;;3.28;;
21601;SDS011;10963;50.934;4.668;2022-07-29T13:32:25;3.80;;;2.90;;
21601;SDS011;10963;50.934;4.668;2022-07-29T13:34:52;8.15;;;3.17;;
21601;SDS011;10963;50.934;4.668;2022-07-29T13:37:21;10.10;;;3.42;;
21601;SDS011;10963;50.934;4.668;2022-07-29T13:39:47;4.68;;;2.78;;
21601;SDS011;10963;50.934;4.668;2022-07-29T13:42:12;5.78;;;3.38;;
21601;SDS011;10963;50.934;4.668;2022-07-29T13:44:39;6.55;;;3.20;;
21601;SDS011;10963;50.934;4.668;2022-07-29T13:47:06;12.05;;;3.63;;
21601;SDS011;10963;50.934;4.668;2022-07-29T13:49:32;18.90;;;9.25;;
21601;SDS011;10963;50.934;4.668;2022-07-29T13:51:59;4.40;;;3.65;;
21601;SDS011;10963;50.934;4.668;2022-07-29T13:54:25;4.28;;;3.65;;
21601;SDS011;10963;50.934;4.668;2022-07-29T13:56:51;6.60;;;4.93;;
21601;SDS011;10963;50.934;4.668;2022-07-29T13:59:16;5.22;;;4.63;;
21601;SDS011;10963;50.934;4.668;2022-07-29T14:01:42;7.03;;;4.60;;
21601;SDS011;10963;50.934;4.668;2022-07-29T14:04:10;6.18;;;3.78;;
21601;SDS011;10963;50.934;4.668;2022-07-29T14:06:38;3.80;;;3.33;;
21601;SDS011;10963;50.934;4.668;2022-07-29T14:09:10;4.68;;;3.20;;
21601;SDS011;10963;50.934;4.668;2022-07-29T14:11:36;13.70;;;4.05;;
21601;SDS011;10963;50.934;4.668;2022-07-29T14:14:03;3.97;;;3.22;;
21601;SDS011;10963;50.934;4.668;2022-07-29T14:16:31;5.20;;;3.33;;
21601;SDS011;10963;50.934;4.668;2022-07-29T14:18:58;7.00;;;3.60;;
21601;SDS011;10963;50.934;4.668;2022-07-29T14:21:26;9.43;;;4.65;;
21601;SDS011;10963;50.934;4.668;2022-07-29T14:23:54;7.18;;;4.13;;
21601;SDS011;10963;50.934;4.668;2022-07-29T14:26:22;7.82;;;4.93;;
21601;SDS011;10963;50.934;4.668;2022-07-29T14:28:49;9.50;;;4.63;;
21601;SDS011;10963;50.934;4.668;2022-07-29T14:31:15;9.73;;;5.80;;
21601;SDS011;10963;50.934;4.668;2022-07-29T14:33:45;7.65;;;5.38;;
21601;SDS011;10963;50.934;4.668;2022-07-29T14:36:11;10.93;;;4.93;;
21601;SDS011;10963;50.934;4.668;2022-07-29T14:38:37;5.30;;;4.03;;
21601;SDS011;10963;50.934;4.668;2022-07-29T14:41:03;8.70;;;4.28;;
21601;SDS011;10963;50.934;4.668;2022-07-29T14:43:29;7.68;;;4.10;;
21601;SDS011;10963;50.934;4.668;2022-07-29T14:45:55;7.93;;;3.70;;
21601;SDS011;10963;50.934;4.668;2022-07-29T14:48:23;9.30;;;3.95;;
21601;SDS011;10963;50.934;4.668;2022-07-29T14:50:48;4.93;;;3.50;;
21601;SDS011;10963;50.934;4.668;2022-07-29T14:53:17;9.05;;;4.40;;
21601;SDS011;10963;50.934;4.668;2022-07-29T14:55:44;6.40;;;3.97;;
21601;SDS011;10963;50.934;4.668;2022-07-29T14:58:09;8.05;;;3.50;;
21601;SDS011;10963;50.934;4.668;2022-07-29T15:00:35;5.07;;;3.60;;
21601;SDS011;10963;50.934;4.668;2022-07-29T15:03:02;5.38;;;3.80;;
21601;SDS011;10963;50.934;4.668;2022-07-29T15:05:31;6.80;;;3.65;;
21601;SDS011;10963;50.934;4.668;2022-07-29T15:08:00;4.82;;;4.00;;
21601;SDS011;10963;50.934;4.668;2022-07-29T15:10:28;13.13;;;3.88;;
21601;SDS011;10963;50.934;4.668;2022-07-29T15:12:54;9.23;;;4.15;;
21601;SDS011;10963;50.934;4.668;2022-07-29T15:15:20;7.93;;;4.07;;
21601;SDS011;10963;50.934;4.668;2022-07-29T15:17:50;5.88;;;3.78;;
21601;SDS011;10963;50.934;4.668;2022-07-29T15:20:15;9.55;;;4.72;;
21601;SDS011;10963;50.934;4.668;2022-07-29T15:22:42;6.03;;;5.22;;
21601;SDS011;10963;50.934;4.668;2022-07-29T15:25:08;4.90;;;4.40;;
21601;SDS011;10963;50.934;4.668;2022-07-29T15:27:34;6.30;;;4.05;;
21601;SDS011;10963;50.934;4.668;2022-07-29T15:30:00;7.47;;;4.10;;
21601;SDS011;10963;50.934;4.668;2022-07-29T15:32:28;11.90;;;4.45;;
21601;SDS011;10963;50.934;4.668;2022-07-29T15:34:56;22.80;;;5.15;;
21601;SDS011;10963;50.934;4.668;2022-07-29T15:37:22;7.00;;;3.92;;
21601;SDS011;10963;50.934;4.668;2022-07-29T15:39:50;10.95;;;4.00;;
21601;SDS011;10963;50.934;4.668;2022-07-29T15:42:15;6.10;;;3.40;;
21601;SDS011;10963;50.934;4.668;2022-07-29T15:44:43;7.38;;;3.20;;
21601;SDS011;10963;50.934;4.668;2022-07-29T15:47:12;7.38;;;3.45;;
21601;SDS011;10963;50.934;4.668;2022-07-29T15:49:40;7.25;;;2.78;;
21601;SDS011;10963;50.934;4.668;2022-07-29T15:52:07;5.57;;;3.17;;
21601;SDS011;10963;50.934;4.668;2022-07-29T15:54:38;6.57;;;3.22;;
21601;SDS011;10963;50.934;4.668;2022-07-29T15:57:05;7.38;;;3.08;;
21601;SDS011;10963;50.934;4.668;2022-07-29T15:59:32;3.38;;;3.00;;
21601;SDS011;10963;50.934;4.668;2022-07-29T16:01:58;4.38;;;2.45;;
21601;SDS011;10963;50.934;4.668;2022-07-29T16:04:25;7.10;;;2.70;;
21601;SDS011;10963;50.934;4.668;2022-07-29T16:06:52;3.78;;;2.90;;
21601;SDS011;10963;50.934;4.668;2022-07-29T16:09:18;6.10;;;2.28;;